Cascade, Iowa
Current Conditions -  °F | °C
As of 9:35 AM on Saturday 20 Dec 2014 (Local Time) from KMXO Reporting Station
Haze Haze  
Wind Chill: -5°   Ceiling: 1800
Heat Index: -1°   Visibility: 4mi
Dew Point: -2°   Wind: 8mph
Humidity: 93%   Direction: 140°SE
Pressure: 30.23"   Gusts: NA
Location:  42.3°N, 91.01°W
Report Text: KMXO 201535Z AUTO 14007KT 4SM BR OVC018 M01/M02 A3023 RMK AO2
Loading
Personal Weather Stations






























Interactive Weather Map New forecast layout! Learn more

10-Day Weather Forecast

Advertisements
Track Severe Weather on mobile